sensor_id;sensor_type;location;lat;lon;timestamp;pressure;altitude;pressure_sealevel;temperature;humidity
52535;BME280;38443;53.164;5.802;2023-10-13T00:00:27;101380.25;;;12.62;100.00
52535;BME280;38443;53.164;5.802;2023-10-13T00:02:57;101377.38;;;12.68;100.00
52535;BME280;38443;53.164;5.802;2023-10-13T00:05:27;101367.41;;;12.73;100.00
52535;BME280;38443;53.164;5.802;2023-10-13T00:07:53;101370.81;;;12.78;100.00
52535;BME280;38443;53.164;5.802;2023-10-13T00:10:18;101373.31;;;12.84;100.00
52535;BME280;38443;53.164;5.802;2023-10-13T00:12:44;101372.25;;;12.90;100.00
52535;BME280;38443;53.164;5.802;2023-10-13T00:15:16;101375.56;;;12.98;100.00
52535;BME280;38443;53.164;5.802;2023-10-13T00:17:46;101372.66;;;13.06;100.00
52535;BME280;38443;53.164;5.802;2023-10-13T00:20:11;101367.88;;;13.15;100.00
52535;BME280;38443;53.164;5.802;2023-10-13T00:22:59;101380.09;;;13.26;100.00
52535;BME280;38443;53.164;5.802;2023-10-13T00:25:24;101379.94;;;13.32;100.00
52535;BME280;38443;53.164;5.802;2023-10-13T00:27:57;101378.84;;;13.38;100.00
52535;BME280;38443;53.164;5.802;2023-10-13T00:30:23;101370.63;;;13.42;100.00
52535;BME280;38443;53.164;5.802;2023-10-13T00:32:59;101373.16;;;13.47;100.00
52535;BME280;38443;53.164;5.802;2023-10-13T00:35:28;101365.81;;;13.52;100.00
52535;BME280;38443;53.164;5.802;2023-10-13T00:37:58;101379.13;;;13.56;100.00
52535;BME280;38443;53.164;5.802;2023-10-13T00:40:30;101373.69;;;13.58;100.00
52535;BME280;38443;53.164;5.802;2023-10-13T00:42:59;101372.78;;;13.59;100.00
52535;BME280;38443;53.164;5.802;2023-10-13T00:45:53;101369.09;;;13.62;100.00
52535;BME280;38443;53.164;5.802;2023-10-13T00:48:26;101367.09;;;13.67;100.00
52535;BME280;38443;53.164;5.802;2023-10-13T00:51:02;101371.44;;;13.71;100.00
52535;BME280;38443;53.164;5.802;2023-10-13T00:53:34;101363.34;;;13.72;100.00
52535;BME280;38443;53.164;5.802;2023-10-13T00:56:08;101362.31;;;13.76;100.00
52535;BME280;38443;53.164;5.802;2023-10-13T00:58:34;101366.66;;;13.81;100.00
52535;BME280;38443;53.164;5.802;2023-10-13T01:01:03;101362.91;;;13.85;100.00
52535;BME280;38443;53.164;5.802;2023-10-13T01:03:51;101361.88;;;13.89;100.00
52535;BME280;38443;53.164;5.802;2023-10-13T01:06:29;101344.69;;;13.93;100.00
52535;BME280;38443;53.164;5.802;2023-10-13T01:09:05;101347.16;;;13.99;100.00
52535;BME280;38443;53.164;5.802;2023-10-13T01:11:43;101337.13;;;14.04;100.00
52535;BME280;38443;53.164;5.802;2023-10-13T01:14:10;101340.53;;;14.09;100.00
52535;BME280;38443;53.164;5.802;2023-10-13T01:16:43;101337.72;;;14.12;100.00
52535;BME280;38443;53.164;5.802;2023-10-13T01:19:15;101335.66;;;14.19;100.00
52535;BME280;38443;53.164;5.802;2023-10-13T01:21:47;101348.13;;;14.23;100.00
52535;BME280;38443;53.164;5.802;2023-10-13T01:24:15;101336.41;;;14.24;100.00
52535;BME280;38443;53.164;5.802;2023-10-13T01:26:43;101329.13;;;14.26;100.00
52535;BME280;38443;53.164;5.802;2023-10-13T01:29:08;101338.16;;;14.25;100.00
52535;BME280;38443;53.164;5.802;2023-10-13T01:31:39;101328.28;;;14.26;100.00
52535;BME280;38443;53.164;5.802;2023-10-13T01:34:14;101328.22;;;14.27;100.00
52535;BME280;38443;53.164;5.802;2023-10-13T01:36:44;101330.09;;;14.25;100.00
52535;BME280;38443;53.164;5.802;2023-10-13T01:39:10;101327.44;;;14.24;100.00
52535;BME280;38443;53.164;5.802;2023-10-13T01:41:37;101325.56;;;14.26;100.00
52535;BME280;38443;53.164;5.802;2023-10-13T01:44:04;101312.13;;;14.26;100.00
52535;BME280;38443;53.164;5.802;2023-10-13T01:46:29;101312.06;;;14.27;100.00
52535;BME280;38443;53.164;5.802;2023-10-13T01:48:55;101311.16;;;14.27;100.00
52535;BME280;38443;53.164;5.802;2023-10-13T01:51:22;101306.59;;;14.29;100.00
52535;BME280;38443;53.164;5.802;2023-10-13T01:53:53;101300.34;;;14.28;100.00
52535;BME280;38443;53.164;5.802;2023-10-13T01:56:21;101288.69;;;14.28;100.00
52535;BME280;38443;53.164;5.802;2023-10-13T01:58:48;101296.72;;;14.29;100.00
52535;BME280;38443;53.164;5.802;2023-10-13T02:01:14;101289.47;;;14.31;100.00
52535;BME280;38443;53.164;5.802;2023-10-13T02:04:01;101290.38;;;14.30;100.00
52535;BME280;38443;53.164;5.802;2023-10-13T02:06:29;101293.84;;;14.34;100.00
52535;BME280;38443;53.164;5.802;2023-10-13T02:08:58;101291.09;;;14.35;100.00
52535;BME280;38443;53.164;5.802;2023-10-13T02:11:29;101277.56;;;14.37;100.00
52535;BME280;38443;53.164;5.802;2023-10-13T02:13:55;101282.03;;;14.38;100.00
52535;BME280;38443;53.164;5.802;2023-10-13T02:16:22;101283.72;;;14.41;100.00
52535;BME280;38443;53.164;5.802;2023-10-13T02:18:50;101279.19;;;14.41;100.00
52535;BME280;38443;53.164;5.802;2023-10-13T02:21:18;101272.94;;;14.41;100.00
52535;BME280;38443;53.164;5.802;2023-10-13T02:23:44;101274.72;;;14.42;100.00
52535;BME280;38443;53.164;5.802;2023-10-13T02:26:12;101269.25;;;14.43;100.00
52535;BME280;38443;53.164;5.802;2023-10-13T02:28:40;101262.97;;;14.43;100.00
52535;BME280;38443;53.164;5.802;2023-10-13T02:31:06;101256.78;;;14.41;100.00
52535;BME280;38443;53.164;5.802;2023-10-13T02:33:33;101260.44;;;14.40;100.00
52535;BME280;38443;53.164;5.802;2023-10-13T02:36:03;101252.34;;;14.40;100.00
52535;BME280;38443;53.164;5.802;2023-10-13T02:38:33;101251.34;;;14.42;100.00
52535;BME280;38443;53.164;5.802;2023-10-13T02:41:13;101250.34;;;14.45;100.00
52535;BME280;38443;53.164;5.802;2023-10-13T02:43:50;101245.84;;;14.45;100.00
52535;BME280;38443;53.164;5.802;2023-10-13T02:46:16;101236.81;;;14.46;100.00
52535;BME280;38443;53.164;5.802;2023-10-13T02:48:41;101237.78;;;14.45;100.00
52535;BME280;38443;53.164;5.802;2023-10-13T02:51:11;101225.13;;;14.47;100.00
52535;BME280;38443;53.164;5.802;2023-10-13T02:53:47;101225.03;;;14.49;100.00
52535;BME280;38443;53.164;5.802;2023-10-13T02:56:16;101223.16;;;14.51;100.00
52535;BME280;38443;53.164;5.802;2023-10-13T02:58:52;101214.09;;;14.53;100.00
52535;BME280;38443;53.164;5.802;2023-10-13T03:01:22;101213.28;;;14.51;100.00
52535;BME280;38443;53.164;5.802;2023-10-13T03:03:53;101206.88;;;14.54;100.00
52535;BME280;38443;53.164;5.802;2023-10-13T03:06:21;101193.38;;;14.55;100.00
52535;BME280;38443;53.164;5.802;2023-10-13T03:08:47;101209.53;;;14.55;100.00
52535;BME280;38443;53.164;5.802;2023-10-13T03:11:13;101202.38;;;14.54;100.00
52535;BME280;38443;53.164;5.802;2023-10-13T03:13:39;101189.78;;;14.55;100.00
52535;BME280;38443;53.164;5.802;2023-10-13T03:16:14;101192.44;;;14.56;100.00
52535;BME280;38443;53.164;5.802;2023-10-13T03:18:45;101177.97;;;14.59;100.00
52535;BME280;38443;53.164;5.802;2023-10-13T03:21:19;101181.56;;;14.60;100.00
52535;BME280;38443;53.164;5.802;2023-10-13T03:23:54;101171.72;;;14.59;100.00
52535;BME280;38443;53.164;5.802;2023-10-13T03:26:19;101171.72;;;14.59;100.00
52535;BME280;38443;53.164;5.802;2023-10-13T03:28:46;101176.22;;;14.58;100.00
52535;BME280;38443;53.164;5.802;2023-10-13T03:31:17;101162.81;;;14.56;100.00
52535;BME280;38443;53.164;5.802;2023-10-13T03:33:43;101157.38;;;14.58;100.00
52535;BME280;38443;53.164;5.802;2023-10-13T03:36:11;101141.28;;;14.55;100.00
52535;BME280;38443;53.164;5.802;2023-10-13T03:38:56;101131.47;;;14.54;100.00
52535;BME280;38443;53.164;5.802;2023-10-13T03:41:22;101124.25;;;14.54;100.00
52535;BME280;38443;53.164;5.802;2023-10-13T03:43:49;101120.69;;;14.54;100.00
52535;BME280;38443;53.164;5.802;2023-10-13T03:46:32;101109.91;;;14.54;100.00
52535;BME280;38443;53.164;5.802;2023-10-13T03:48:58;101103.66;;;14.53;100.00
52535;BME280;38443;53.164;5.802;2023-10-13T03:51:26;101096.56;;;14.51;100.00
52535;BME280;38443;53.164;5.802;2023-10-13T03:53:56;101084.03;;;14.50;100.00
52535;BME280;38443;53.164;5.802;2023-10-13T03:56:26;101071.44;;;14.50;100.00
52535;BME280;38443;53.164;5.802;2023-10-13T03:58:56;101078.66;;;14.50;100.00
52535;BME280;38443;53.164;5.802;2023-10-13T04:01:40;101066.06;;;14.50;100.00
52535;BME280;38443;53.164;5.802;2023-10-13T04:04:15;101057.06;;;14.51;100.00
52535;BME280;38443;53.164;5.802;2023-10-13T04:06:54;101050.75;;;14.51;100.00
52535;BME280;38443;53.164;5.802;2023-10-13T04:09:39;101051.53;;;14.54;100.00
52535;BME280;38443;53.164;5.802;2023-10-13T04:12:13;101039.88;;;14.54;100.00
52535;BME280;38443;53.164;5.802;2023-10-13T04:15:05;101026.41;;;14.54;100.00
52535;BME280;38443;53.164;5.802;2023-10-13T04:17:30;101020.97;;;14.55;100.00
52535;BME280;38443;53.164;5.802;2023-10-13T04:20:05;101007.44;;;14.57;100.00
52535;BME280;38443;53.164;5.802;2023-10-13T04:22:42;101004.69;;;14.59;100.00
52535;BME280;38443;53.164;5.802;2023-10-13T04:28:01;100992.97;;;14.60;100.00
52535;BME280;38443;53.164;5.802;2023-10-13T04:30:45;100984.81;;;14.61;100.00
52535;BME280;38443;53.164;5.802;2023-10-13T04:33:26;100968.59;;;14.63;100.00
52535;BME280;38443;53.164;5.802;2023-10-13T04:36:02;100972.16;;;14.63;100.00
52535;BME280;38443;53.164;5.802;2023-10-13T04:38:47;100962.28;;;14.64;100.00
52535;BME280;38443;53.164;5.802;2023-10-13T04:41:38;100965.84;;;14.64;100.00
52535;BME280;38443;53.164;5.802;2023-10-13T04:44:07;100975.81;;;14.62;100.00
52535;BME280;38443;53.164;5.802;2023-10-13T04:46:53;100975.75;;;14.64;100.00
52535;BME280;38443;53.164;5.802;2023-10-13T04:49:25;100960.44;;;14.64;100.00
52535;BME280;38443;53.164;5.802;2023-10-13T04:51:58;100943.53;;;14.61;100.00
52535;BME280;38443;53.164;5.802;2023-10-13T04:54:28;100945.31;;;14.62;100.00
52535;BME280;38443;53.164;5.802;2023-10-13T04:57:14;100924.84;;;14.58;100.00
52535;BME280;38443;53.164;5.802;2023-10-13T04:59:59;100928.38;;;14.58;100.00
52535;BME280;38443;53.164;5.802;2023-10-13T05:02:57;100932.00;;;14.57;100.00
52535;BME280;38443;53.164;5.802;2023-10-13T05:05:26;100915.97;;;14.54;100.00
52535;BME280;38443;53.164;5.802;2023-10-13T05:08:10;100920.41;;;14.55;100.00
52535;BME280;38443;53.164;5.802;2023-10-13T05:10:54;100904.44;;;14.50;100.00
52535;BME280;38443;53.164;5.802;2023-10-13T05:13:38;100888.28;;;14.50;100.00
52535;BME280;38443;53.164;5.802;2023-10-13T05:16:22;100881.16;;;14.49;100.00
52535;BME280;38443;53.164;5.802;2023-10-13T05:19:06;100894.69;;;14.48;100.00
52535;BME280;38443;53.164;5.802;2023-10-13T05:21:50;100889.38;;;14.46;100.00
52535;BME280;38443;53.164;5.802;2023-10-13T05:24:34;100881.22;;;14.48;100.00
52535;BME280;38443;53.164;5.802;2023-10-13T05:27:18;100881.22;;;14.48;100.00
52535;BME280;38443;53.164;5.802;2023-10-13T05:30:02;100873.22;;;14.46;100.00
52535;BME280;38443;53.164;5.802;2023-10-13T05:32:46;100865.13;;;14.46;100.00
52535;BME280;38443;53.164;5.802;2023-10-13T05:35:31;100861.63;;;14.44;100.00
52535;BME280;38443;53.164;5.802;2023-10-13T05:38:15;100861.75;;;14.41;100.00
52535;BME280;38443;53.164;5.802;2023-10-13T05:41:03;100857.56;;;14.35;100.00
52535;BME280;38443;53.164;5.802;2023-10-13T05:43:47;100846.31;;;14.26;100.00
52535;BME280;38443;53.164;5.802;2023-10-13T05:46:31;100844.88;;;14.17;100.00
52535;BME280;38443;53.164;5.802;2023-10-13T05:49:04;100835.19;;;14.13;100.00
52535;BME280;38443;53.164;5.802;2023-10-13T05:51:42;100827.28;;;14.10;100.00
52535;BME280;38443;53.164;5.802;2023-10-13T05:54:07;100827.28;;;14.10;100.00
52535;BME280;38443;53.164;5.802;2023-10-13T05:56:49;100812.94;;;14.09;100.00
52535;BME280;38443;53.164;5.802;2023-10-13T05:59:36;100819.25;;;14.08;100.00
52535;BME280;38443;53.164;5.802;2023-10-13T06:02:21;100813.88;;;14.08;100.00
52535;BME280;38443;53.164;5.802;2023-10-13T06:05:10;100803.06;;;14.10;100.00
52535;BME280;38443;53.164;5.802;2023-10-13T06:07:54;100806.59;;;14.10;100.00
52535;BME280;38443;53.164;5.802;2023-10-13T06:10:39;100810.91;;;14.14;100.00
52535;BME280;38443;53.164;5.802;2023-10-13T06:13:26;100802.56;;;14.21;100.00
52535;BME280;38443;53.164;5.802;2023-10-13T06:16:15;100801.47;;;14.25;100.00
52535;BME280;38443;53.164;5.802;2023-10-13T06:19:00;100796.78;;;14.30;100.00
52535;BME280;38443;53.164;5.802;2023-10-13T06:21:44;100783.94;;;14.35;100.00
52535;BME280;38443;53.164;5.802;2023-10-13T06:24:29;100777.47;;;14.39;100.00
52535;BME280;38443;53.164;5.802;2023-10-13T06:27:14;100805.09;;;14.44;100.00
52535;BME280;38443;53.164;5.802;2023-10-13T06:29:58;100811.16;;;14.49;100.00
52535;BME280;38443;53.164;5.802;2023-10-13T06:32:23;100828.09;;;14.51;100.00
52535;BME280;38443;53.164;5.802;2023-10-13T06:34:53;100816.38;;;14.52;100.00
52535;BME280;38443;53.164;5.802;2023-10-13T06:37:23;100804.66;;;14.53;100.00
52535;BME280;38443;53.164;5.802;2023-10-13T06:39:52;100814.44;;;14.56;100.00
52535;BME280;38443;53.164;5.802;2023-10-13T06:42:23;100815.31;;;14.56;100.00
52535;BME280;38443;53.164;5.802;2023-10-13T06:44:55;100794.56;;;14.59;100.00
52535;BME280;38443;53.164;5.802;2023-10-13T06:47:21;100789.06;;;14.62;100.00
52535;BME280;38443;53.164;5.802;2023-10-13T06:49:48;100782.75;;;14.61;100.00
52535;BME280;38443;53.164;5.802;2023-10-13T06:52:19;100778.13;;;14.65;100.00
52535;BME280;38443;53.164;5.802;2023-10-13T06:54:50;100783.50;;;14.65;100.00
52535;BME280;38443;53.164;5.802;2023-10-13T06:57:15;100778.19;;;14.63;100.00
52535;BME280;38443;53.164;5.802;2023-10-13T06:59:46;100754.97;;;14.61;100.00
52535;BME280;38443;53.164;5.802;2023-10-13T07:02:11;100737.94;;;14.60;100.00
52535;BME280;38443;53.164;5.802;2023-10-13T07:04:50;100746.94;;;14.59;100.00
52535;BME280;38443;53.164;5.802;2023-10-13T07:07:28;100728.03;;;14.61;100.00
52535;BME280;38443;53.164;5.802;2023-10-13T07:09:53;100723.44;;;14.63;100.00
52535;BME280;38443;53.164;5.802;2023-10-13T07:12:23;100716.16;;;14.65;100.00
52535;BME280;38443;53.164;5.802;2023-10-13T07:14:59;100708.06;;;14.65;100.00
52535;BME280;38443;53.164;5.802;2023-10-13T07:17:36;100723.38;;;14.64;100.00
52535;BME280;38443;53.164;5.802;2023-10-13T07:20:06;100710.84;;;14.63;100.00
52535;BME280;38443;53.164;5.802;2023-10-13T07:22:51;100713.63;;;14.62;100.00
52535;BME280;38443;53.164;5.802;2023-10-13T07:25:35;100712.81;;;14.60;100.00
52535;BME280;38443;53.164;5.802;2023-10-13T07:28:07;100702.13;;;14.58;100.00
52535;BME280;38443;53.164;5.802;2023-10-13T07:30:37;100710.31;;;14.55;100.00
52535;BME280;38443;53.164;5.802;2023-10-13T07:33:34;100695.16;;;14.52;100.00
52535;BME280;38443;53.164;5.802;2023-10-13T07:36:04;100687.16;;;14.51;100.00
52535;BME280;38443;53.164;5.802;2023-10-13T07:38:53;100666.56;;;14.50;100.00
52535;BME280;38443;53.164;5.802;2023-10-13T07:41:39;100653.09;;;14.50;100.00
52535;BME280;38443;53.164;5.802;2023-10-13T07:44:07;100651.44;;;14.47;100.00
52535;BME280;38443;53.164;5.802;2023-10-13T07:46:35;100646.06;;;14.47;100.00
52535;BME280;38443;53.164;5.802;2023-10-13T07:49:00;100633.53;;;14.46;100.00
52535;BME280;38443;53.164;5.802;2023-10-13T07:51:35;100632.66;;;14.46;100.00
52535;BME280;38443;53.164;5.802;2023-10-13T07:54:11;100651.44;;;14.47;100.00
52535;BME280;38443;53.164;5.802;2023-10-13T07:56:38;100630.69;;;14.49;100.00
52535;BME280;38443;53.164;5.802;2023-10-13T07:59:05;100621.53;;;14.53;100.00
52535;BME280;38443;53.164;5.802;2023-10-13T08:01:34;100614.22;;;14.55;100.00
52535;BME280;38443;53.164;5.802;2023-10-13T08:04:08;100613.16;;;14.60;100.00
52535;BME280;38443;53.164;5.802;2023-10-13T08:06:33;100599.53;;;14.63;100.00
52535;BME280;38443;53.164;5.802;2023-10-13T08:09:01;100588.53;;;14.67;100.00
52535;BME280;38443;53.164;5.802;2023-10-13T08:11:52;100572.28;;;14.69;100.00
52535;BME280;38443;53.164;5.802;2023-10-13T08:14:19;100587.34;;;14.73;100.00
52535;BME280;38443;53.164;5.802;2023-10-13T08:16:49;100563.88;;;14.75;100.00
52535;BME280;38443;53.164;5.802;2023-10-13T08:19:19;100565.47;;;14.79;100.00
52535;BME280;38443;53.164;5.802;2023-10-13T08:21:46;100551.06;;;14.80;100.00
52535;BME280;38443;53.164;5.802;2023-10-13T08:24:17;100549.94;;;14.84;100.00
52535;BME280;38443;53.164;5.802;2023-10-13T08:27:02;100561.50;;;14.86;100.00
52535;BME280;38443;53.164;5.802;2023-10-13T08:29:39;100544.31;;;14.89;100.00
52535;BME280;38443;53.164;5.802;2023-10-13T08:32:16;100538.84;;;14.90;100.00
52535;BME280;38443;53.164;5.802;2023-10-13T08:37:20;100532.34;;;14.94;100.00
52535;BME280;38443;53.164;5.802;2023-10-13T08:39:56;100522.34;;;14.96;100.00
52535;BME280;38443;53.164;5.802;2023-10-13T08:42:32;100527.50;;;15.01;100.00
52535;BME280;38443;53.164;5.802;2023-10-13T08:45:14;100478.41;;;15.12;100.00
52535;BME280;38443;53.164;5.802;2023-10-13T08:47:49;100488.78;;;15.20;100.00
52535;BME280;38443;53.164;5.802;2023-10-13T08:50:48;100494.53;;;15.29;100.00
52535;BME280;38443;53.164;5.802;2023-10-13T08:53:31;100485.34;;;15.33;100.00
52535;BME280;38443;53.164;5.802;2023-10-13T08:56:07;100492.31;;;15.38;100.00
52535;BME280;38443;53.164;5.802;2023-10-13T08:58:40;100493.88;;;15.42;100.00
52535;BME280;38443;53.164;5.802;2023-10-13T09:01:36;100461.25;;;15.46;100.00
52535;BME280;38443;53.164;5.802;2023-10-13T09:04:17;100456.44;;;15.51;100.00
52535;BME280;38443;53.164;5.802;2023-10-13T09:07:03;100454.09;;;15.61;100.00
52535;BME280;38443;53.164;5.802;2023-10-13T09:09:43;100446.31;;;15.72;100.00
52535;BME280;38443;53.164;5.802;2023-10-13T09:12:33;100446.09;;;15.91;100.00
52535;BME280;38443;53.164;5.802;2023-10-13T09:15:06;100437.81;;;16.10;100.00
52535;BME280;38443;53.164;5.802;2023-10-13T09:17:43;100417.91;;;16.27;100.00
52535;BME280;38443;53.164;5.802;2023-10-13T09:20:14;100384.94;;;16.37;100.00
52535;BME280;38443;53.164;5.802;2023-10-13T09:23:12;100347.44;;;16.46;100.00
52535;BME280;38443;53.164;5.802;2023-10-13T09:25:48;100338.56;;;16.59;100.00
52535;BME280;38443;53.164;5.802;2023-10-13T09:28:27;100331.91;;;16.64;100.00
52535;BME280;38443;53.164;5.802;2023-10-13T09:30:54;100331.63;;;16.69;100.00
52535;BME280;38443;53.164;5.802;2023-10-13T09:33:25;100302.66;;;16.71;100.00
52535;BME280;38443;53.164;5.802;2023-10-13T09:36:05;100300.53;;;16.76;100.00
52535;BME280;38443;53.164;5.802;2023-10-13T09:38:33;100298.50;;;16.80;100.00
52535;BME280;38443;53.164;5.802;2023-10-13T09:40:59;100291.00;;;16.85;100.00
52535;BME280;38443;53.164;5.802;2023-10-13T09:43:43;100271.00;;;16.87;100.00
52535;BME280;38443;53.164;5.802;2023-10-13T09:46:10;100267.13;;;16.91;100.00
52535;BME280;38443;53.164;5.802;2023-10-13T09:48:47;100267.50;;;17.00;100.00
52535;BME280;38443;53.164;5.802;2023-10-13T09:51:14;100247.31;;;17.05;100.00
52535;BME280;38443;53.164;5.802;2023-10-13T09:53:41;100262.34;;;17.09;100.00
52535;BME280;38443;53.164;5.802;2023-10-13T09:56:16;100223.63;;;17.09;100.00
52535;BME280;38443;53.164;5.802;2023-10-13T09:58:56;100236.41;;;17.07;100.00
52535;BME280;38443;53.164;5.802;2023-10-13T10:01:27;100220.16;;;17.07;100.00
52535;BME280;38443;53.164;5.802;2023-10-13T10:04:10;100236.47;;;17.05;100.00
52535;BME280;38443;53.164;5.802;2023-10-13T10:06:57;100216.69;;;17.05;100.00
52535;BME280;38443;53.164;5.802;2023-10-13T10:09:32;100203.00;;;17.08;100.00
52535;BME280;38443;53.164;5.802;2023-10-13T10:12:18;100192.94;;;17.10;100.00
52535;BME280;38443;53.164;5.802;2023-10-13T10:15:06;100192.41;;;17.18;100.00
52535;BME280;38443;53.164;5.802;2023-10-13T10:17:40;100194.41;;;17.28;100.00
52535;BME280;38443;53.164;5.802;2023-10-13T10:20:06;100173.44;;;17.45;100.00
52535;BME280;38443;53.164;5.802;2023-10-13T10:22:39;100193.47;;;17.55;100.00
52535;BME280;38443;53.164;5.802;2023-10-13T10:25:09;100179.31;;;17.64;100.00
52535;BME280;38443;53.164;5.802;2023-10-13T10:27:58;100162.09;;;17.65;100.00
52535;BME280;38443;53.164;5.802;2023-10-13T10:30:30;100153.88;;;17.67;100.00
52535;BME280;38443;53.164;5.802;2023-10-13T10:32:58;100143.69;;;17.70;100.00
52535;BME280;38443;53.164;5.802;2023-10-13T10:35:45;100144.56;;;17.71;100.00
52535;BME280;38443;53.164;5.802;2023-10-13T10:38:17;100143.81;;;17.69;100.00
52535;BME280;38443;53.164;5.802;2023-10-13T10:41:01;100133.41;;;17.75;100.00
52535;BME280;38443;53.164;5.802;2023-10-13T10:43:38;100140.00;;;17.71;100.00
52535;BME280;38443;53.164;5.802;2023-10-13T10:46:18;100144.56;;;17.71;100.00
52535;BME280;38443;53.164;5.802;2023-10-13T10:48:50;100136.66;;;17.81;100.00
52535;BME280;38443;53.164;5.802;2023-10-13T10:51:21;100136.13;;;18.01;100.00
52535;BME280;38443;53.164;5.802;2023-10-13T10:53:51;100131.69;;;18.13;100.00
52535;BME280;38443;53.164;5.802;2023-10-13T10:56:19;100116.81;;;18.19;100.00
52535;BME280;38443;53.164;5.802;2023-10-13T10:59:07;100110.88;;;18.13;100.00
52535;BME280;38443;53.164;5.802;2023-10-13T11:01:43;100090.94;;;18.14;100.00
52535;BME280;38443;53.164;5.802;2023-10-13T11:04:18;100092.66;;;18.16;100.00
52535;BME280;38443;53.164;5.802;2023-10-13T11:06:51;100092.44;;;18.06;100.00
52535;BME280;38443;53.164;5.802;2023-10-13T11:09:29;100103.88;;;17.98;100.00
52535;BME280;38443;53.164;5.802;2023-10-13T11:15:01;100099.84;;;17.91;100.00
52535;BME280;38443;53.164;5.802;2023-10-13T11:17:27;100091.50;;;17.94;100.00
52535;BME280;38443;53.164;5.802;2023-10-13T11:20:11;100089.88;;;17.91;100.00
52535;BME280;38443;53.164;5.802;2023-10-13T11:22:45;100075.38;;;17.92;100.00
52535;BME280;38443;53.164;5.802;2023-10-13T11:25:20;100074.50;;;17.92;100.00
52535;BME280;38443;53.164;5.802;2023-10-13T11:27:48;100055.88;;;18.00;100.00
52535;BME280;38443;53.164;5.802;2023-10-13T11:30:17;100073.94;;;18.00;100.00
52535;BME280;38443;53.164;5.802;2023-10-13T11:33:06;100066.38;;;17.92;100.00
52535;BME280;38443;53.164;5.802;2023-10-13T11:35:33;100091.84;;;17.89;100.00
52535;BME280;38443;53.164;5.802;2023-10-13T11:38:17;100116.94;;;17.79;100.00
52535;BME280;38443;53.164;5.802;2023-10-13T11:40:56;100135.88;;;17.53;100.00
52535;BME280;38443;53.164;5.802;2023-10-13T11:43:41;100130.19;;;17.18;100.00
52535;BME280;38443;53.164;5.802;2023-10-13T11:46:10;100145.47;;;16.91;100.00
52535;BME280;38443;53.164;5.802;2023-10-13T11:48:41;100118.78;;;16.72;100.00
52535;BME280;38443;53.164;5.802;2023-10-13T11:51:14;100128.56;;;16.61;100.00
52535;BME280;38443;53.164;5.802;2023-10-13T11:53:44;100135.16;;;16.57;100.00
52535;BME280;38443;53.164;5.802;2023-10-13T11:56:18;100145.97;;;16.57;100.00
52535;BME280;38443;53.164;5.802;2023-10-13T11:58:46;100139.38;;;16.61;100.00
52535;BME280;38443;53.164;5.802;2023-10-13T12:01:11;100130.88;;;16.67;100.00
52535;BME280;38443;53.164;5.802;2023-10-13T12:03:47;100116.00;;;16.74;100.00
52535;BME280;38443;53.164;5.802;2023-10-13T12:06:33;100109.13;;;16.83;100.00
52535;BME280;38443;53.164;5.802;2023-10-13T12:09:03;100112.28;;;16.89;100.00
52535;BME280;38443;53.164;5.802;2023-10-13T12:11:48;100105.91;;;16.90;100.00
52535;BME280;38443;53.164;5.802;2023-10-13T12:14:16;100111.84;;;16.95;100.00
52535;BME280;38443;53.164;5.802;2023-10-13T12:16:51;100106.00;;;16.89;100.00
52535;BME280;38443;53.164;5.802;2023-10-13T12:19:20;100118.00;;;16.85;100.00
52535;BME280;38443;53.164;5.802;2023-10-13T12:21:49;100089.94;;;16.73;100.00
52535;BME280;38443;53.164;5.802;2023-10-13T12:24:15;100115.06;;;16.61;100.00
52535;BME280;38443;53.164;5.802;2023-10-13T12:26:59;100122.34;;;16.46;100.00
52535;BME280;38443;53.164;5.802;2023-10-13T12:29:24;100111.84;;;16.41;100.00
52535;BME280;38443;53.164;5.802;2023-10-13T12:31:57;100106.66;;;16.38;100.00
52535;BME280;38443;53.164;5.802;2023-10-13T12:34:39;100116.56;;;16.38;100.00
52535;BME280;38443;53.164;5.802;2023-10-13T12:37:24;100105.66;;;16.39;100.00
52535;BME280;38443;53.164;5.802;2023-10-13T12:40:13;100113.00;;;16.37;100.00
52535;BME280;38443;53.164;5.802;2023-10-13T12:42:57;100120.34;;;16.35;100.00
52535;BME280;38443;53.164;5.802;2023-10-13T12:45:46;100112.53;;;16.30;100.00
52535;BME280;38443;53.164;5.802;2023-10-13T12:48:31;100121.50;;;16.31;100.00
52535;BME280;38443;53.164;5.802;2023-10-13T12:51:15;100106.38;;;16.28;100.00
52535;BME280;38443;53.164;5.802;2023-10-13T12:53:53;100102.91;;;16.26;100.00
52535;BME280;38443;53.164;5.802;2023-10-13T12:56:20;100087.47;;;16.28;100.00
52535;BME280;38443;53.164;5.802;2023-10-13T12:58:52;100092.19;;;16.25;100.00
52535;BME280;38443;53.164;5.802;2023-10-13T13:01:18;100080.72;;;16.21;100.00
52535;BME280;38443;53.164;5.802;2023-10-13T13:03:46;100078.34;;;16.17;100.00
52535;BME280;38443;53.164;5.802;2023-10-13T13:06:25;100084.59;;;16.17;100.00
52535;BME280;38443;53.164;5.802;2023-10-13T13:08:57;100069.94;;;16.21;100.00
52535;BME280;38443;53.164;5.802;2023-10-13T13:11:23;100073.41;;;16.23;100.00
52535;BME280;38443;53.164;5.802;2023-10-13T13:13:48;100070.59;;;16.25;100.00
52535;BME280;38443;53.164;5.802;2023-10-13T13:16:17;100076.00;;;16.25;100.00
52535;BME280;38443;53.164;5.802;2023-10-13T13:18:55;100058.09;;;16.24;100.00
52535;BME280;38443;53.164;5.802;2023-10-13T13:21:21;100056.34;;;16.23;100.00
52535;BME280;38443;53.164;5.802;2023-10-13T13:23:50;100045.53;;;16.23;100.00
52535;BME280;38443;53.164;5.802;2023-10-13T13:26:15;100073.31;;;16.25;100.00